Terminal Aerodrome Forecast
Issued by NWS Charleston, WV

Current Version | Previous Version | Text Only | Print | Product List | Glossary On
Versions: 1 2 3 4 5 6 7 8 9 10 11 12 13 14 15 16 17 18 19 20 21 22 23 24 25 26
000
FTUS41 KRLX 070813 AAA
TAFPKB
TAF AMD
KPKB 070813Z 0708/0806 20004KT 4SM BR SCT001
     FM071300 20005KT P6SM SCT035
     FM071500 21009G17KT P6SM SCT035 BKN250
     FM071700 21013G22KT P6SM BKN035
     FM071900 22011G19KT P6SM VCTS BKN045CB
     FM072100 22008KT 3SM TSRA BR BKN040CB BKN080
     FM080200 20006KT 3SM SHRA BR VCTS BKN025CB BKN080=

USA.gov is the U.S. government's official web portal to all federal, state and local government web resources and services.